Batavia, NY (14020)

11:37 AM EDT on May 05, 2015 (GMT -0400)
West side of Stafford | | Change Station
CLOSE
Current Station
Personal Weather Station
Location: Batavia, NY
Elevation: 922 ft
Nearby Weather Stations

Elev 922 ft 42.99 °N, 78.11 °W | Updated 2 seconds ago

Mostly Cloudy
Mostly Cloudy
73.6 °F
Feels Like 77 °F
N
3.4
Wind Variable Wind from NE
Gusts 5.8 mph

Today
High -- | Low -- °F
--% Chance of Precip.
Yesterday
High -- | Low -- °F
Precip. -- in
6:01 AM 8:18 PM
Full, 98% visible
Pressure 30.28 in
Visibility 7.0 miles
Clouds Few 20000 ft
Mostly Cloudy 25000 ft
Heat Index 77 °F
Dew Point 52 °F
Humidity 46%
Rainfall 0.00 in
Snow Depth Not available.
UV 0.0 out of 12
Pollen 8.80 out of 12
Air Quality Not available.
Flu Activity Widespread
METAR KBUF 051454Z 00000KT 7SM FEW200 BKN250 17/12 A3028 RMK AO2 SLP254 T01720117 53001

More Conditions Fewer Conditions

Pressure 30.28 in
Visibility 7.0 miles
Clouds Few 20000 ft
Mostly Cloudy 25000 ft
Heat Index 77 °F
Dew Point 52 °F
Humidity 46%
Rainfall 0.00 in
Snow Depth Not available.
UV 0.0 out of 12
Pollen 8.80 out of 12
Air Quality Not available.
Flu Activity Widespread
METAR KBUF 051454Z 00000KT 7SM FEW200 BKN250 17/12 A3028 RMK AO2 SLP254 T01720117 53001

More Conditions Fewer Conditions

10-Day Weather Forecast

Almanac

Astronomy

May. 05, 2015 Rise Set
Actual Time
Civil Twilight
Nautical Twilight
Astronomical Twilight
Moon
Length of Visible Light
Length of Day
Tomorrow will be .
, % of the Moon is Illuminated

Today's Extremes

State Highs State Lows

Community

WunderPhotos

Upload Photos

1,818,918 photos uploaded!

WunderBlogs® & News

Nearby

Air Quality

  Air Quality AQ Index Pollutant
Not available.

Snow Depth

Station Depth Elevation

Earthquake Activity

City Distance Mag. Time & Date
Minimum magnitude displayed is 2.5.

Coastal Water Temperatures

Place Temperature

Stations

Nearby Weather Stations

Station Location Temp. Windchill Dew Point Humidity Wind Precip. Elev Updated Type